createdAt,value
2023-01-21T00:03:09.391Z,3.90
2023-01-21T00:08:03.407Z,3.67
2023-01-21T00:12:57.096Z,3.57
2023-01-21T00:17:54.069Z,3.52
2023-01-21T00:22:49.667Z,3.50
2023-01-21T00:27:49.388Z,3.58
2023-01-21T00:32:41.906Z,3.66
2023-01-21T00:37:34.710Z,2.69
2023-01-21T00:42:25.895Z,2.69
2023-01-21T00:47:29.561Z,2.63
2023-01-21T00:52:24.517Z,3.58
2023-01-21T00:57:23.295Z,3.58
2023-01-21T01:02:20.433Z,3.57
2023-01-21T01:07:16.355Z,3.58
2023-01-21T01:12:12.146Z,3.57
2023-01-21T01:17:05.835Z,3.42
2023-01-21T01:21:58.872Z,3.40
2023-01-21T01:26:59.380Z,3.28
2023-01-21T01:31:58.912Z,3.39
2023-01-21T01:36:58.897Z,3.32
2023-01-21T01:41:50.119Z,3.48
2023-01-21T01:46:40.718Z,3.40
2023-01-21T01:51:34.567Z,3.43
2023-01-21T01:56:31.877Z,3.43
2023-01-21T02:01:21.454Z,3.50
2023-01-21T02:06:12.063Z,3.39
2023-01-21T02:11:02.948Z,3.48
2023-01-21T02:16:09.862Z,3.58
2023-01-21T02:21:24.718Z,3.57
2023-01-21T02:26:33.556Z,3.36
2023-01-21T02:31:35.066Z,3.53
2023-01-21T02:36:44.432Z,3.63
2023-01-21T02:41:43.666Z,3.56
2023-01-21T02:46:40.491Z,3.56
2023-01-21T02:51:32.094Z,3.44
2023-01-21T02:56:25.559Z,3.58
2023-01-21T03:01:27.152Z,3.61
2023-01-21T03:06:36.051Z,3.35
2023-01-21T03:11:27.741Z,3.37
2023-01-21T03:16:37.384Z,3.20
2023-01-21T03:21:28.574Z,3.18
2023-01-21T03:26:21.500Z,3.16
2023-01-21T03:31:13.869Z,3.19
2023-01-21T03:36:12.460Z,3.12
2023-01-21T03:41:04.691Z,3.03
2023-01-21T03:45:58.189Z,3.10
2023-01-21T03:50:51.480Z,3.11
2023-01-21T03:55:43.920Z,3.17
2023-01-21T04:00:33.475Z,3.02
2023-01-21T04:05:27.570Z,2.99
2023-01-21T04:10:18.055Z,2.95
2023-01-21T04:15:12.756Z,2.89
2023-01-21T04:20:04.846Z,2.90
2023-01-21T04:24:54.746Z,2.94
2023-01-21T04:29:44.366Z,2.95
2023-01-21T04:34:37.294Z,2.93
2023-01-21T04:39:29.801Z,2.82
2023-01-21T04:44:23.766Z,2.96
2023-01-21T04:49:16.243Z,2.96
2023-01-21T04:54:09.639Z,2.96
2023-01-21T04:59:02.799Z,2.94
2023-01-21T05:03:55.637Z,2.95
2023-01-21T05:08:50.683Z,3.00
2023-01-21T05:13:43.493Z,3.05
2023-01-21T05:18:34.013Z,2.94
2023-01-21T05:23:24.713Z,2.98
2023-01-21T05:28:14.915Z,2.83
2023-01-21T05:33:07.585Z,2.87
2023-01-21T05:38:00.154Z,2.87
2023-01-21T05:42:51.203Z,2.92
2023-01-21T05:47:45.486Z,2.96
2023-01-21T05:52:38.937Z,2.96
2023-01-21T05:57:32.929Z,2.99
2023-01-21T06:02:41.107Z,2.93
2023-01-21T06:07:32.349Z,2.96
2023-01-21T06:12:35.242Z,2.94
2023-01-21T06:17:27.343Z,2.84
2023-01-21T06:22:17.962Z,2.85
2023-01-21T06:27:08.789Z,2.81
2023-01-21T06:32:03.168Z,2.77
2023-01-21T06:36:58.825Z,2.76
2023-01-21T06:41:50.435Z,2.75
2023-01-21T06:46:45.930Z,2.73
2023-01-21T06:51:44.999Z,2.66
2023-01-21T06:56:41.817Z,2.55
2023-01-21T07:01:32.747Z,2.63
2023-01-21T07:06:26.744Z,2.61
2023-01-21T07:11:19.123Z,2.64
2023-01-21T07:16:12.502Z,2.58
2023-01-21T07:21:02.562Z,2.59
2023-01-21T07:25:52.466Z,2.61
2023-01-21T07:30:59.339Z,2.47
2023-01-21T07:35:51.981Z,2.63
2023-01-21T07:40:45.208Z,2.64
2023-01-21T07:45:37.176Z,2.69
2023-01-21T07:50:31.043Z,2.62
2023-01-21T07:55:25.867Z,2.65
2023-01-21T08:00:17.285Z,2.67
2023-01-21T08:05:07.061Z,2.73
2023-01-21T08:10:06.632Z,2.80
2023-01-21T08:14:58.174Z,2.87
2023-01-21T08:19:51.521Z,2.90
2023-01-21T08:24:45.908Z,3.04
2023-01-21T08:29:39.126Z,3.13
2023-01-21T08:34:33.187Z,3.15
2023-01-21T08:39:23.760Z,3.05
2023-01-21T08:44:15.279Z,3.03
2023-01-21T08:49:12.115Z,3.11
2023-01-21T08:54:03.725Z,3.16
2023-01-21T08:58:57.052Z,3.16
2023-01-21T09:03:47.111Z,3.12
2023-01-21T09:08:40.967Z,3.14
2023-01-21T09:13:31.624Z,3.06
2023-01-21T09:18:26.939Z,2.95
2023-01-21T09:23:34.488Z,2.82
2023-01-21T09:28:32.889Z,2.78
2023-01-21T09:33:29.677Z,2.86
2023-01-21T09:38:20.046Z,2.84
2023-01-21T09:43:16.302Z,2.89
2023-01-21T09:48:12.383Z,2.72
2023-01-21T09:53:07.775Z,2.69
2023-01-21T09:58:18.056Z,2.79
2023-01-21T10:03:30.659Z,2.78
2023-01-21T10:08:25.780Z,2.76
2023-01-21T10:13:31.540Z,2.88
2023-01-21T10:18:32.355Z,3.03
2023-01-21T10:23:32.708Z,3.14
2023-01-21T10:28:26.001Z,3.22
2023-01-21T10:33:27.564Z,3.25
2023-01-21T10:38:25.408Z,3.38
2023-01-21T10:43:26.815Z,3.57
2023-01-21T10:48:22.161Z,3.75
2023-01-21T10:53:20.880Z,3.87
2023-01-21T10:58:26.374Z,3.89
2023-01-21T11:03:19.188Z,3.90
2023-01-21T11:08:09.208Z,4.07
2023-01-21T11:12:59.310Z,4.18
2023-01-21T11:18:00.266Z,4.32
2023-01-21T11:22:54.348Z,4.35
2023-01-21T11:27:45.266Z,4.49
2023-01-21T11:32:36.077Z,4.64
2023-01-21T11:37:31.800Z,4.50
2023-01-21T11:42:25.201Z,4.76
2023-01-21T11:47:36.545Z,5.02
2023-01-21T11:52:30.583Z,5.15
2023-01-21T11:57:29.467Z,5.45
2023-01-21T12:02:24.539Z,5.38
2023-01-21T12:07:20.428Z,5.20
2023-01-21T12:12:28.030Z,5.15
2023-01-21T12:17:26.431Z,5.09
2023-01-21T12:22:29.849Z,4.92
2023-01-21T12:27:27.495Z,4.78
2023-01-21T12:32:28.645Z,4.87
2023-01-21T12:37:30.342Z,4.83
2023-01-21T12:42:32.633Z,4.68
2023-01-21T12:47:33.478Z,4.82
2023-01-21T12:52:26.860Z,4.64
2023-01-21T12:57:21.972Z,4.53
2023-01-21T13:02:27.972Z,4.62
2023-01-21T13:12:26.358Z,4.67
2023-01-21T13:17:21.209Z,4.66
2023-01-21T13:22:23.781Z,4.76
2023-01-21T13:27:32.012Z,4.82
2023-01-21T13:32:43.272Z,4.82
2023-01-21T13:37:40.245Z,4.95
2023-01-21T13:42:40.725Z,4.86
2023-01-21T13:47:51.789Z,4.90
2023-01-21T13:52:50.765Z,4.91
2023-01-21T13:57:49.478Z,4.89
2023-01-21T14:02:48.761Z,4.90
2023-01-21T14:07:41.889Z,4.82
2023-01-21T14:12:41.653Z,4.71
2023-01-21T14:17:38.962Z,4.43
2023-01-21T14:22:50.134Z,4.49
2023-01-21T14:27:51.714Z,4.33
2023-01-21T14:32:44.148Z,4.26
2023-01-21T14:37:36.399Z,4.07
2023-01-21T14:42:42.848Z,3.84
2023-01-21T14:47:47.310Z,3.67
2023-01-21T14:52:39.372Z,3.68
2023-01-21T14:57:36.070Z,3.40
2023-01-21T15:02:31.538Z,3.51
2023-01-21T15:07:22.669Z,3.38
2023-01-21T15:12:19.084Z,3.47
2023-01-21T15:17:42.001Z,3.54
2023-01-21T15:22:49.897Z,3.46
2023-01-21T15:27:39.578Z,3.31
2023-01-21T15:32:38.252Z,3.38
2023-01-21T15:37:31.072Z,3.41
2023-01-21T15:42:29.440Z,3.18
2023-01-21T15:47:52.098Z,3.19
2023-01-21T15:53:09.525Z,3.02
2023-01-21T15:58:16.198Z,3.07
2023-01-21T16:03:28.214Z,3.00
2023-01-21T16:08:38.235Z,3.15
2023-01-21T16:13:47.099Z,3.05
2023-01-21T16:18:52.912Z,3.26
2023-01-21T16:23:47.191Z,3.19
2023-01-21T16:28:46.174Z,3.27
2023-01-21T16:33:36.740Z,3.30
2023-01-21T16:38:29.937Z,3.29
2023-01-21T16:43:30.822Z,3.31
2023-01-21T16:48:28.100Z,2.42
2023-01-21T16:53:20.064Z,2.39
2023-01-21T16:58:39.233Z,2.47
2023-01-21T17:03:32.480Z,2.47
2023-01-21T17:08:26.279Z,2.47
2023-01-21T17:13:22.047Z,2.39
2023-01-21T17:18:29.647Z,2.48
2023-01-21T17:23:25.175Z,2.53
2023-01-21T17:28:34.486Z,2.53
2023-01-21T17:33:33.630Z,2.45
2023-01-21T17:38:33.647Z,2.44
2023-01-21T17:43:28.376Z,2.40
2023-01-21T17:48:29.728Z,2.42
2023-01-21T17:53:31.303Z,2.44
2023-01-21T17:58:59.035Z,2.51
2023-01-21T18:03:58.081Z,2.49
2023-01-21T18:08:57.621Z,2.53
2023-01-21T18:13:50.541Z,2.44
2023-01-21T18:18:43.416Z,2.47
2023-01-21T18:23:33.908Z,2.43
2023-01-21T18:28:30.936Z,2.49
2023-01-21T18:33:25.937Z,2.46
2023-01-21T18:38:22.303Z,2.22
2023-01-21T18:43:17.875Z,2.15
2023-01-21T18:48:17.680Z,2.24
2023-01-21T18:53:09.574Z,2.26
2023-01-21T18:58:09.884Z,2.20
2023-01-21T19:03:04.161Z,2.20
2023-01-21T19:08:00.703Z,2.22
2023-01-21T19:12:58.836Z,2.36
2023-01-21T19:17:51.489Z,2.36
2023-01-21T19:22:43.884Z,2.35
2023-01-21T19:27:52.072Z,2.48
2023-01-21T19:32:42.046Z,2.48
2023-01-21T19:37:37.004Z,2.58
2023-01-21T19:42:27.811Z,2.60
2023-01-21T19:47:34.606Z,2.32
2023-01-21T19:52:31.383Z,2.73
2023-01-21T19:57:29.257Z,2.83
2023-01-21T20:02:25.938Z,2.90
2023-01-21T20:07:23.569Z,2.96
2023-01-21T20:17:37.213Z,3.01
2023-01-21T20:22:43.594Z,2.96
2023-01-21T20:27:42.829Z,3.09
2023-01-21T20:32:36.857Z,3.77
2023-01-21T20:37:35.519Z,3.81
2023-01-21T20:42:35.065Z,3.81
2023-01-21T20:47:38.621Z,3.94
2023-01-21T20:52:43.500Z,3.74
2023-01-21T20:57:37.239Z,3.76
2023-01-21T21:02:31.112Z,3.85
2023-01-21T21:07:27.155Z,3.92
2023-01-21T21:12:35.862Z,3.95
2023-01-21T21:17:28.106Z,3.94
2023-01-21T21:22:19.081Z,3.81
2023-01-21T21:27:15.427Z,3.84
2023-01-21T21:32:17.833Z,3.90
2023-01-21T21:37:11.329Z,3.94
2023-01-21T21:42:16.571Z,3.95
2023-01-21T21:47:26.890Z,3.97
2023-01-21T21:52:18.360Z,4.00
2023-01-21T21:57:15.888Z,3.98
2023-01-21T22:02:14.916Z,4.03
2023-01-21T22:07:05.908Z,3.82
2023-01-21T22:11:56.799Z,3.76
2023-01-21T22:16:52.274Z,3.71
2023-01-21T22:21:51.966Z,3.71
2023-01-21T22:26:45.574Z,3.65
2023-01-21T22:31:49.708Z,3.57
2023-01-21T22:36:46.603Z,3.55
2023-01-21T22:41:39.283Z,3.45
2023-01-21T22:46:34.957Z,3.42
2023-01-21T22:51:26.957Z,3.39
2023-01-21T22:56:19.468Z,3.37
2023-01-21T23:01:23.438Z,3.27
2023-01-21T23:06:16.788Z,3.27
2023-01-21T23:11:09.548Z,3.19
2023-01-21T23:16:05.247Z,3.06
2023-01-21T23:20:58.842Z,2.98
2023-01-21T23:25:50.493Z,2.91
2023-01-21T23:30:40.571Z,2.96
2023-01-21T23:35:34.192Z,2.86
2023-01-21T23:40:27.624Z,2.77
2023-01-21T23:45:21.911Z,2.71
2023-01-21T23:50:14.477Z,2.68
2023-01-21T23:55:04.813Z,2.63
2023-01-21T23:59:57.560Z,2.69
